aviador You're here:

KAGC Decoded Metar

PITTSBURGH/ALLEG in PA, USA
Report Time2018-04-24 13:53:00
UTC Time2018-04-24 14:28:04
Flight Rules vfr VFR
Wind090° at 08 kt
W.Decomp.*RWY 10: 8.0 kt HW 0.1 kt LCW
RWY 13: 6.9 kt HW 4.1 kt LCW
W.Rank090° ranks 30
Current wind is above 090° avg. (5.5)
Visibility9999 m
Phenomena:Light Rain
Clouds:Broken 055 Hf
Overcast 070 Hf
Expected CloudBase > 400 ft AGL from Temp-Dew spread
Ceiling5,500 ft
Temp09°C (ISA -3)
Dew Point08°C (94% RH)
AAT5.7°C
QNH1021 hPa
Density Alt741 ft
Elevation1,276 ft
Report Wrong Elevation
Raw Report
KAGC 241353Z 09008KT 10SM -RA BKN055 OVC070 09/08 A3014 RMK AO2
SLP210 P0003 T00940078=

Extra information for KAGC:More info

Metar Taf Metar & Taf Last 4 Metars F.Rules Stats Wind Profile Meteogram Temp Stats Airport Information Weather charts Add Link Nearby VenuesMetar ALERT Operation Metar Decoded Social comments

AIRNAV info for KAGC